sensor_id;sensor_type;location;lat;lon;timestamp;temperature;humidity
64652;HTU21D;51062;45.120;37.660;2022-12-18T00:01:45;11.33;76.08
64652;HTU21D;51062;45.120;37.660;2022-12-18T00:04:16;11.36;76.02
64652;HTU21D;51062;45.120;37.660;2022-12-18T00:06:44;11.37;76.10
64652;HTU21D;51062;45.120;37.660;2022-12-18T00:09:10;11.43;76.01
64652;HTU21D;51062;45.120;37.660;2022-12-18T00:11:36;11.38;75.87
64652;HTU21D;51062;45.120;37.660;2022-12-18T00:14:01;11.28;75.95
64652;HTU21D;51062;45.120;37.660;2022-12-18T00:16:28;11.20;76.05
64652;HTU21D;51062;45.120;37.660;2022-12-18T00:18:54;11.11;76.14
64652;HTU21D;51062;45.120;37.660;2022-12-18T00:21:23;11.05;76.23
64652;HTU21D;51062;45.120;37.660;2022-12-18T00:23:49;11.01;76.28
64652;HTU21D;51062;45.120;37.660;2022-12-18T00:26:19;10.94;76.31
64652;HTU21D;51062;45.120;37.660;2022-12-18T00:28:45;10.88;76.36
64652;HTU21D;51062;45.120;37.660;2022-12-18T00:31:15;10.81;76.39
64652;HTU21D;51062;45.120;37.660;2022-12-18T00:33:41;10.74;76.47
64652;HTU21D;51062;45.120;37.660;2022-12-18T00:36:10;10.72;76.60
64652;HTU21D;51062;45.120;37.660;2022-12-18T00:38:36;10.70;76.60
64652;HTU21D;51062;45.120;37.660;2022-12-18T00:41:02;10.68;76.57
64652;HTU21D;51062;45.120;37.660;2022-12-18T00:43:28;10.66;76.64
64652;HTU21D;51062;45.120;37.660;2022-12-18T00:45:54;10.65;76.70
64652;HTU21D;51062;45.120;37.660;2022-12-18T00:48:20;10.65;76.70
64652;HTU21D;51062;45.120;37.660;2022-12-18T00:50:47;10.65;76.73
64652;HTU21D;51062;45.120;37.660;2022-12-18T00:53:13;10.66;76.79
64652;HTU21D;51062;45.120;37.660;2022-12-18T00:55:39;10.67;76.72
64652;HTU21D;51062;45.120;37.660;2022-12-18T00:58:05;10.65;76.64
64652;HTU21D;51062;45.120;37.660;2022-12-18T01:00:32;10.57;76.63
64652;HTU21D;51062;45.120;37.660;2022-12-18T01:02:58;10.52;76.79
64652;HTU21D;51062;45.120;37.660;2022-12-18T01:05:24;10.51;76.84
64652;HTU21D;51062;45.120;37.660;2022-12-18T01:07:51;10.48;76.79
64652;HTU21D;51062;45.120;37.660;2022-12-18T01:10:17;10.44;76.79
64652;HTU21D;51062;45.120;37.660;2022-12-18T01:12:43;10.38;76.79
64652;HTU21D;51062;45.120;37.660;2022-12-18T01:15:10;10.33;76.86
64652;HTU21D;51062;45.120;37.660;2022-12-18T01:17:36;10.27;76.93
64652;HTU21D;51062;45.120;37.660;2022-12-18T01:20:02;10.27;77.06
64652;HTU21D;51062;45.120;37.660;2022-12-18T01:22:29;10.28;77.03
64652;HTU21D;51062;45.120;37.660;2022-12-18T01:24:54;10.33;77.07
64652;HTU21D;51062;45.120;37.660;2022-12-18T01:27:22;10.38;77.13
64652;HTU21D;51062;45.120;37.660;2022-12-18T01:29:48;10.54;77.29
64652;HTU21D;51062;45.120;37.660;2022-12-18T01:32:14;10.82;77.31
64652;HTU21D;51062;45.120;37.660;2022-12-18T01:34:40;11.19;76.96
64652;HTU21D;51062;45.120;37.660;2022-12-18T01:37:06;11.51;76.45
64652;HTU21D;51062;45.120;37.660;2022-12-18T01:39:32;11.72;76.05
64652;HTU21D;51062;45.120;37.660;2022-12-18T01:41:59;11.85;75.76
64652;HTU21D;51062;45.120;37.660;2022-12-18T01:47:27;12.18;75.49
64652;HTU21D;51062;45.120;37.660;2022-12-18T01:49:54;12.23;75.31
64652;HTU21D;51062;45.120;37.660;2022-12-18T01:52:21;12.29;75.31
64652;HTU21D;51062;45.120;37.660;2022-12-18T01:54:48;12.35;75.34
64652;HTU21D;51062;45.120;37.660;2022-12-18T01:57:18;12.40;75.28
64652;HTU21D;51062;45.120;37.660;2022-12-18T01:59:45;12.42;75.29
64652;HTU21D;51062;45.120;37.660;2022-12-18T02:02:13;12.42;75.28
64652;HTU21D;51062;45.120;37.660;2022-12-18T02:04:43;12.43;75.34
64652;HTU21D;51062;45.120;37.660;2022-12-18T02:12:48;12.51;75.42
64652;HTU21D;51062;45.120;37.660;2022-12-18T02:15:22;12.58;75.28
64652;HTU21D;51062;45.120;37.660;2022-12-18T02:18:02;12.62;75.21
64652;HTU21D;51062;45.120;37.660;2022-12-18T02:23:01;12.60;75.07
64652;HTU21D;51062;45.120;37.660;2022-12-18T02:25:38;12.53;75.10
64652;HTU21D;51062;45.120;37.660;2022-12-18T02:28:06;12.43;75.18
64652;HTU21D;51062;45.120;37.660;2022-12-18T02:30:35;12.32;75.31
64652;HTU21D;51062;45.120;37.660;2022-12-18T02:33:04;12.26;75.47
64652;HTU21D;51062;45.120;37.660;2022-12-18T02:35:30;12.19;75.57
64652;HTU21D;51062;45.120;37.660;2022-12-18T02:37:58;12.23;75.63
64652;HTU21D;51062;45.120;37.660;2022-12-18T02:40:28;12.29;75.56
64652;HTU21D;51062;45.120;37.660;2022-12-18T02:42:54;12.31;75.38
64652;HTU21D;51062;45.120;37.660;2022-12-18T02:45:21;12.29;75.25
64652;HTU21D;51062;45.120;37.660;2022-12-18T02:47:48;12.25;75.21
64652;HTU21D;51062;45.120;37.660;2022-12-18T02:50:22;12.17;75.31
64652;HTU21D;51062;45.120;37.660;2022-12-18T02:53:00;12.14;75.38
64652;HTU21D;51062;45.120;37.660;2022-12-18T02:55:35;12.19;75.45
64652;HTU21D;51062;45.120;37.660;2022-12-18T02:58:15;12.31;75.38
64652;HTU21D;51062;45.120;37.660;2022-12-18T03:00:52;12.43;75.21
64652;HTU21D;51062;45.120;37.660;2022-12-18T03:03:31;12.61;74.99
64652;HTU21D;51062;45.120;37.660;2022-12-18T03:06:07;12.73;74.76
64652;HTU21D;51062;45.120;37.660;2022-12-18T03:08:39;12.80;74.58
64652;HTU21D;51062;45.120;37.660;2022-12-18T03:11:08;12.84;74.47
64652;HTU21D;51062;45.120;37.660;2022-12-18T03:16:03;12.74;74.47
64652;HTU21D;51062;45.120;37.660;2022-12-18T03:18:38;12.72;74.60
64652;HTU21D;51062;45.120;37.660;2022-12-18T03:21:06;12.75;74.66
64652;HTU21D;51062;45.120;37.660;2022-12-18T03:23:45;12.76;74.54
64652;HTU21D;51062;45.120;37.660;2022-12-18T03:26:15;12.76;74.58
64652;HTU21D;51062;45.120;37.660;2022-12-18T03:28:43;12.78;74.50
64652;HTU21D;51062;45.120;37.660;2022-12-18T03:31:11;12.73;74.54
64652;HTU21D;51062;45.120;37.660;2022-12-18T03:33:40;12.74;74.57
64652;HTU21D;51062;45.120;37.660;2022-12-18T03:36:07;12.76;74.59
64652;HTU21D;51062;45.120;37.660;2022-12-18T03:38:33;12.76;74.55
64652;HTU21D;51062;45.120;37.660;2022-12-18T03:41:11;12.75;74.57
64652;HTU21D;51062;45.120;37.660;2022-12-18T03:46:30;12.67;74.46
64652;HTU21D;51062;45.120;37.660;2022-12-18T03:49:00;12.53;74.44
64652;HTU21D;51062;45.120;37.660;2022-12-18T03:54:00;12.21;74.68
64652;HTU21D;51062;45.120;37.660;2022-12-18T03:56:35;12.03;74.83
64652;HTU21D;51062;45.120;37.660;2022-12-18T03:59:02;11.87;75.05
64652;HTU21D;51062;45.120;37.660;2022-12-18T04:01:32;11.76;75.18
64652;HTU21D;51062;45.120;37.660;2022-12-18T04:04:00;11.66;75.27
64652;HTU21D;51062;45.120;37.660;2022-12-18T04:06:29;11.53;75.38
64652;HTU21D;51062;45.120;37.660;2022-12-18T04:08:56;11.47;75.47
64652;HTU21D;51062;45.120;37.660;2022-12-18T04:11:25;11.39;75.47
64652;HTU21D;51062;45.120;37.660;2022-12-18T04:13:53;11.33;75.57
64652;HTU21D;51062;45.120;37.660;2022-12-18T04:16:22;11.28;75.63
64652;HTU21D;51062;45.120;37.660;2022-12-18T04:18:52;11.20;75.61
64652;HTU21D;51062;45.120;37.660;2022-12-18T04:21:19;11.11;75.65
64652;HTU21D;51062;45.120;37.660;2022-12-18T04:23:46;11.01;75.79
64652;HTU21D;51062;45.120;37.660;2022-12-18T04:26:13;10.97;75.92
64652;HTU21D;51062;45.120;37.660;2022-12-18T04:28:50;10.95;75.90
64652;HTU21D;51062;45.120;37.660;2022-12-18T04:31:16;10.93;75.89
64652;HTU21D;51062;45.120;37.660;2022-12-18T04:33:42;10.88;75.88
64652;HTU21D;51062;45.120;37.660;2022-12-18T04:36:08;10.85;75.92
64652;HTU21D;51062;45.120;37.660;2022-12-18T04:38:35;10.84;76.01
64652;HTU21D;51062;45.120;37.660;2022-12-18T04:41:06;10.95;76.08
64652;HTU21D;51062;45.120;37.660;2022-12-18T04:43:32;11.03;75.98
64652;HTU21D;51062;45.120;37.660;2022-12-18T04:46:02;11.15;75.92
64652;HTU21D;51062;45.120;37.660;2022-12-18T04:48:28;11.27;75.79
64652;HTU21D;51062;45.120;37.660;2022-12-18T04:50:54;11.40;75.69
64652;HTU21D;51062;45.120;37.660;2022-12-18T04:53:20;11.55;75.59
64652;HTU21D;51062;45.120;37.660;2022-12-18T04:55:46;11.70;75.46
64652;HTU21D;51062;45.120;37.660;2022-12-18T04:58:12;11.88;75.28
64652;HTU21D;51062;45.120;37.660;2022-12-18T05:00:38;12.03;75.09
64652;HTU21D;51062;45.120;37.660;2022-12-18T05:03:03;12.16;74.96
64652;HTU21D;51062;45.120;37.660;2022-12-18T05:05:29;12.30;74.89
64652;HTU21D;51062;45.120;37.660;2022-12-18T05:07:55;12.46;74.75
64652;HTU21D;51062;45.120;37.660;2022-12-18T05:10:21;12.59;74.60
64652;HTU21D;51062;45.120;37.660;2022-12-18T05:12:47;12.70;74.50
64652;HTU21D;51062;45.120;37.660;2022-12-18T05:15:29;12.79;74.41
64652;HTU21D;51062;45.120;37.660;2022-12-18T05:17:55;12.86;74.35
64652;HTU21D;51062;45.120;37.660;2022-12-18T05:20:21;12.92;74.37
64652;HTU21D;51062;45.120;37.660;2022-12-18T05:22:47;12.95;74.35
64652;HTU21D;51062;45.120;37.660;2022-12-18T05:25:13;13.03;74.35
64652;HTU21D;51062;45.120;37.660;2022-12-18T05:27:39;13.07;74.35
64652;HTU21D;51062;45.120;37.660;2022-12-18T05:30:06;13.12;74.31
64652;HTU21D;51062;45.120;37.660;2022-12-18T05:32:33;13.15;74.31
64652;HTU21D;51062;45.120;37.660;2022-12-18T05:34:59;13.21;74.31
64652;HTU21D;51062;45.120;37.660;2022-12-18T05:37:27;13.25;74.32
64652;HTU21D;51062;45.120;37.660;2022-12-18T05:39:53;13.33;74.31
64652;HTU21D;51062;45.120;37.660;2022-12-18T05:42:18;13.37;74.30
64652;HTU21D;51062;45.120;37.660;2022-12-18T05:44:44;13.41;74.29
64652;HTU21D;51062;45.120;37.660;2022-12-18T05:47:10;13.45;74.27
64652;HTU21D;51062;45.120;37.660;2022-12-18T05:49:36;13.48;74.26
64652;HTU21D;51062;45.120;37.660;2022-12-18T05:52:02;13.52;74.27
64652;HTU21D;51062;45.120;37.660;2022-12-18T05:54:28;13.53;74.26
64652;HTU21D;51062;45.120;37.660;2022-12-18T05:56:54;13.59;74.30
64652;HTU21D;51062;45.120;37.660;2022-12-18T05:59:20;13.63;74.22
64652;HTU21D;51062;45.120;37.660;2022-12-18T06:01:46;13.64;74.19
64652;HTU21D;51062;45.120;37.660;2022-12-18T06:04:11;13.66;74.22
64652;HTU21D;51062;45.120;37.660;2022-12-18T06:06:37;13.68;74.23
64652;HTU21D;51062;45.120;37.660;2022-12-18T06:09:03;13.74;74.24
64652;HTU21D;51062;45.120;37.660;2022-12-18T06:11:35;13.80;74.25
64652;HTU21D;51062;45.120;37.660;2022-12-18T06:14:02;13.86;74.22
64652;HTU21D;51062;45.120;37.660;2022-12-18T06:16:28;13.92;74.19
64652;HTU21D;51062;45.120;37.660;2022-12-18T06:18:57;13.97;74.18
64652;HTU21D;51062;45.120;37.660;2022-12-18T06:21:23;14.01;74.18
64652;HTU21D;51062;45.120;37.660;2022-12-18T06:23:49;14.04;74.19
64652;HTU21D;51062;45.120;37.660;2022-12-18T06:26:15;14.06;74.21
64652;HTU21D;51062;45.120;37.660;2022-12-18T06:28:41;14.08;74.20
64652;HTU21D;51062;45.120;37.660;2022-12-18T06:31:07;14.11;74.22
64652;HTU21D;51062;45.120;37.660;2022-12-18T06:33:34;14.18;74.18
64652;HTU21D;51062;45.120;37.660;2022-12-18T06:36:04;14.24;74.15
64652;HTU21D;51062;45.120;37.660;2022-12-18T06:38:31;14.35;74.09
64652;HTU21D;51062;45.120;37.660;2022-12-18T06:40:57;14.45;74.09
64652;HTU21D;51062;45.120;37.660;2022-12-18T06:43:23;14.68;73.95
64652;HTU21D;51062;45.120;37.660;2022-12-18T06:45:49;14.93;73.64
64652;HTU21D;51062;45.120;37.660;2022-12-18T06:48:18;15.10;73.31
64652;HTU21D;51062;45.120;37.660;2022-12-18T06:50:45;15.23;73.25
64652;HTU21D;51062;45.120;37.660;2022-12-18T06:53:11;15.30;73.12
64652;HTU21D;51062;45.120;37.660;2022-12-18T06:55:37;15.34;73.15
64652;HTU21D;51062;45.120;37.660;2022-12-18T06:58:03;15.39;73.15
64652;HTU21D;51062;45.120;37.660;2022-12-18T07:00:29;15.40;73.15
64652;HTU21D;51062;45.120;37.660;2022-12-18T07:02:54;15.41;73.26
64652;HTU21D;51062;45.120;37.660;2022-12-18T07:05:20;15.43;73.36
64652;HTU21D;51062;45.120;37.660;2022-12-18T07:07:46;15.52;73.51
64652;HTU21D;51062;45.120;37.660;2022-12-18T07:10:12;15.73;73.36
64652;HTU21D;51062;45.120;37.660;2022-12-18T07:12:38;15.96;72.98
64652;HTU21D;51062;45.120;37.660;2022-12-18T07:15:04;16.02;72.80
64652;HTU21D;51062;45.120;37.660;2022-12-18T07:17:30;16.07;72.91
64652;HTU21D;51062;45.120;37.660;2022-12-18T07:19:56;16.21;72.83
64652;HTU21D;51062;45.120;37.660;2022-12-18T07:22:22;16.32;72.74
64652;HTU21D;51062;45.120;37.660;2022-12-18T07:24:48;16.31;72.64
64652;HTU21D;51062;45.120;37.660;2022-12-18T07:27:15;16.18;72.79
64652;HTU21D;51062;45.120;37.660;2022-12-18T07:29:41;16.03;72.99
64652;HTU21D;51062;45.120;37.660;2022-12-18T07:32:07;15.88;73.23
64652;HTU21D;51062;45.120;37.660;2022-12-18T07:34:33;15.76;73.47
64652;HTU21D;51062;45.120;37.660;2022-12-18T07:36:58;15.66;73.66
64652;HTU21D;51062;45.120;37.660;2022-12-18T07:39:24;15.55;73.80
64652;HTU21D;51062;45.120;37.660;2022-12-18T07:41:50;15.47;73.94
64652;HTU21D;51062;45.120;37.660;2022-12-18T07:44:35;15.36;74.07
64652;HTU21D;51062;45.120;37.660;2022-12-18T07:47:01;15.25;74.17
64652;HTU21D;51062;45.120;37.660;2022-12-18T07:49:27;15.17;74.30
64652;HTU21D;51062;45.120;37.660;2022-12-18T07:51:56;15.08;74.41
64652;HTU21D;51062;45.120;37.660;2022-12-18T07:54:23;15.02;74.52
64652;HTU21D;51062;45.120;37.660;2022-12-18T07:56:48;14.98;74.57
64652;HTU21D;51062;45.120;37.660;2022-12-18T07:59:14;14.98;74.66
64652;HTU21D;51062;45.120;37.660;2022-12-18T08:01:40;14.98;74.70
64652;HTU21D;51062;45.120;37.660;2022-12-18T08:04:06;15.01;74.75
64652;HTU21D;51062;45.120;37.660;2022-12-18T08:06:32;15.06;74.80
64652;HTU21D;51062;45.120;37.660;2022-12-18T08:08:58;15.12;74.83
64652;HTU21D;51062;45.120;37.660;2022-12-18T08:11:25;15.19;74.84
64652;HTU21D;51062;45.120;37.660;2022-12-18T08:13:52;15.25;74.78
64652;HTU21D;51062;45.120;37.660;2022-12-18T08:16:18;15.29;74.72
64652;HTU21D;51062;45.120;37.660;2022-12-18T08:18:44;15.33;74.64
64652;HTU21D;51062;45.120;37.660;2022-12-18T08:21:11;15.34;74.61
64652;HTU21D;51062;45.120;37.660;2022-12-18T08:23:38;15.36;74.59
64652;HTU21D;51062;45.120;37.660;2022-12-18T08:26:04;15.34;74.57
64652;HTU21D;51062;45.120;37.660;2022-12-18T08:28:30;15.29;74.59
64652;HTU21D;51062;45.120;37.660;2022-12-18T08:30:56;15.23;74.63
64652;HTU21D;51062;45.120;37.660;2022-12-18T08:33:23;15.15;74.73
64652;HTU21D;51062;45.120;37.660;2022-12-18T08:35:49;15.10;74.86
64652;HTU21D;51062;45.120;37.660;2022-12-18T08:38:15;15.08;74.94
64652;HTU21D;51062;45.120;37.660;2022-12-18T08:40:40;15.04;74.98
64652;HTU21D;51062;45.120;37.660;2022-12-18T08:43:07;15.01;75.00
64652;HTU21D;51062;45.120;37.660;2022-12-18T08:45:53;14.98;75.01
64652;HTU21D;51062;45.120;37.660;2022-12-18T08:48:19;14.92;75.05
64652;HTU21D;51062;45.120;37.660;2022-12-18T08:50:53;14.85;75.11
64652;HTU21D;51062;45.120;37.660;2022-12-18T08:53:19;14.82;75.18
64652;HTU21D;51062;45.120;37.660;2022-12-18T08:55:44;14.80;75.23
64652;HTU21D;51062;45.120;37.660;2022-12-18T08:58:10;14.80;75.25
64652;HTU21D;51062;45.120;37.660;2022-12-18T09:00:36;14.80;75.29
64652;HTU21D;51062;45.120;37.660;2022-12-18T09:03:02;14.83;75.31
64652;HTU21D;51062;45.120;37.660;2022-12-18T09:05:28;14.88;75.33
64652;HTU21D;51062;45.120;37.660;2022-12-18T09:07:54;14.94;75.30
64652;HTU21D;51062;45.120;37.660;2022-12-18T09:10:20;14.98;75.27
64652;HTU21D;51062;45.120;37.660;2022-12-18T09:12:46;15.03;75.22
64652;HTU21D;51062;45.120;37.660;2022-12-18T09:15:12;15.06;75.14
64652;HTU21D;51062;45.120;37.660;2022-12-18T09:17:37;15.06;75.13
64652;HTU21D;51062;45.120;37.660;2022-12-18T09:20:03;15.03;75.15
64652;HTU21D;51062;45.120;37.660;2022-12-18T09:22:30;15.01;75.17
64652;HTU21D;51062;45.120;37.660;2022-12-18T09:24:56;14.97;75.20
64652;HTU21D;51062;45.120;37.660;2022-12-18T09:27:22;14.95;75.27
64652;HTU21D;51062;45.120;37.660;2022-12-18T09:29:47;14.88;75.32
64652;HTU21D;51062;45.120;37.660;2022-12-18T09:32:13;14.83;75.38
64652;HTU21D;51062;45.120;37.660;2022-12-18T09:34:39;14.79;75.42
64652;HTU21D;51062;45.120;37.660;2022-12-18T09:37:05;14.73;75.50
64652;HTU21D;51062;45.120;37.660;2022-12-18T09:39:31;14.69;75.53
64652;HTU21D;51062;45.120;37.660;2022-12-18T09:41:57;14.66;75.59
64652;HTU21D;51062;45.120;37.660;2022-12-18T09:46:58;14.52;75.57
64652;HTU21D;51062;45.120;37.660;2022-12-18T09:49:26;14.32;75.61
64652;HTU21D;51062;45.120;37.660;2022-12-18T09:52:00;14.12;75.92
64652;HTU21D;51062;45.120;37.660;2022-12-18T09:54:38;13.96;76.19
64652;HTU21D;51062;45.120;37.660;2022-12-18T09:57:15;13.84;76.37
64652;HTU21D;51062;45.120;37.660;2022-12-18T09:59:41;13.73;76.53
64652;HTU21D;51062;45.120;37.660;2022-12-18T10:02:14;13.62;76.60
64652;HTU21D;51062;45.120;37.660;2022-12-18T10:04:41;13.52;76.74
64652;HTU21D;51062;45.120;37.660;2022-12-18T10:07:09;13.46;76.90
64652;HTU21D;51062;45.120;37.660;2022-12-18T10:09:43;13.43;76.99
64652;HTU21D;51062;45.120;37.660;2022-12-18T10:17:26;13.32;76.98
64652;HTU21D;51062;45.120;37.660;2022-12-18T10:19:55;13.24;76.96
64652;HTU21D;51062;45.120;37.660;2022-12-18T10:22:44;13.16;77.06
64652;HTU21D;51062;45.120;37.660;2022-12-18T10:27:53;13.00;77.19
64652;HTU21D;51062;45.120;37.660;2022-12-18T10:30:21;12.88;77.27
64652;HTU21D;51062;45.120;37.660;2022-12-18T10:32:48;12.76;77.33
64652;HTU21D;51062;45.120;37.660;2022-12-18T10:35:21;12.61;77.47
64652;HTU21D;51062;45.120;37.660;2022-12-18T10:40:47;12.36;77.76
64652;HTU21D;51062;45.120;37.660;2022-12-18T10:43:13;12.26;77.89
64652;HTU21D;51062;45.120;37.660;2022-12-18T10:45:40;12.15;77.99
64652;HTU21D;51062;45.120;37.660;2022-12-18T10:48:27;12.07;78.11
64652;HTU21D;51062;45.120;37.660;2022-12-18T10:50:52;12.01;78.18
64652;HTU21D;51062;45.120;37.660;2022-12-18T10:53:22;11.96;78.19
64652;HTU21D;51062;45.120;37.660;2022-12-18T10:55:48;11.85;78.19
64652;HTU21D;51062;45.120;37.660;2022-12-18T10:58:24;11.77;78.30
64652;HTU21D;51062;45.120;37.660;2022-12-18T11:01:12;11.71;78.37
64652;HTU21D;51062;45.120;37.660;2022-12-18T11:03:41;11.64;78.43
64652;HTU21D;51062;45.120;37.660;2022-12-18T11:06:11;11.59;78.44
64652;HTU21D;51062;45.120;37.660;2022-12-18T11:08:39;11.54;78.47
64652;HTU21D;51062;45.120;37.660;2022-12-18T11:11:21;11.51;78.49
64652;HTU21D;51062;45.120;37.660;2022-12-18T11:14:01;11.45;78.46
64652;HTU21D;51062;45.120;37.660;2022-12-18T11:16:29;11.38;78.50
64652;HTU21D;51062;45.120;37.660;2022-12-18T11:19:09;11.34;78.54
64652;HTU21D;51062;45.120;37.660;2022-12-18T11:21:53;11.31;78.58
64652;HTU21D;51062;45.120;37.660;2022-12-18T11:24:49;11.28;78.55
64652;HTU21D;51062;45.120;37.660;2022-12-18T11:27:17;11.19;78.51
64652;HTU21D;51062;45.120;37.660;2022-12-18T11:29:46;0.00;78.55
64652;HTU21D;51062;45.120;37.660;2022-12-18T11:32:32;11.04;78.59
64652;HTU21D;51062;45.120;37.660;2022-12-18T11:35:03;10.96;78.65
64652;HTU21D;51062;45.120;37.660;2022-12-18T11:37:31;10.87;78.74
64652;HTU21D;51062;45.120;37.660;2022-12-18T11:40:11;10.83;78.77
64652;HTU21D;51062;45.120;37.660;2022-12-18T11:42:53;10.78;78.78
64652;HTU21D;51062;45.120;37.660;2022-12-18T11:50:57;10.60;78.75
64652;HTU21D;51062;45.120;37.660;2022-12-18T11:53:25;10.53;78.85
64652;HTU21D;51062;45.120;37.660;2022-12-18T12:09:01;10.04;79.09
64652;HTU21D;51062;45.120;37.660;2022-12-18T12:11:35;9.94;79.20
64652;HTU21D;51062;45.120;37.660;2022-12-18T12:20:02;9.80;79.32
64652;HTU21D;51062;45.120;37.660;2022-12-18T12:22:38;9.79;79.30
64652;HTU21D;51062;45.120;37.660;2022-12-18T12:30:58;9.76;79.26
64652;HTU21D;51062;45.120;37.660;2022-12-18T12:33:36;9.74;79.24
64652;HTU21D;51062;45.120;37.660;2022-12-18T12:36:21;9.71;79.26
64652;HTU21D;51062;45.120;37.660;2022-12-18T12:38:52;9.69;79.24
64652;HTU21D;51062;45.120;37.660;2022-12-18T12:41:21;9.68;79.22
64652;HTU21D;51062;45.120;37.660;2022-12-18T12:44:09;9.62;79.17
64652;HTU21D;51062;45.120;37.660;2022-12-18T12:46:41;9.60;79.22
64652;HTU21D;51062;45.120;37.660;2022-12-18T12:49:14;9.56;79.24
64652;HTU21D;51062;45.120;37.660;2022-12-18T12:51:41;9.51;79.26
64652;HTU21D;51062;45.120;37.660;2022-12-18T12:54:12;9.47;79.25
64652;HTU21D;51062;45.120;37.660;2022-12-18T12:56:42;9.40;79.27
64652;HTU21D;51062;45.120;37.660;2022-12-18T12:59:22;9.35;79.27
64652;HTU21D;51062;45.120;37.660;2022-12-18T13:04:34;9.23;79.34
64652;HTU21D;51062;45.120;37.660;2022-12-18T13:07:06;9.17;79.42
64652;HTU21D;51062;45.120;37.660;2022-12-18T13:10:10;9.14;79.47
64652;HTU21D;51062;45.120;37.660;2022-12-18T13:12:22;9.09;79.47
64652;HTU21D;51062;45.120;37.660;2022-12-18T13:15:19;9.05;79.43
64652;HTU21D;51062;45.120;37.660;2022-12-18T13:17:46;8.98;79.46
64652;HTU21D;51062;45.120;37.660;2022-12-18T13:20:13;8.95;79.50
64652;HTU21D;51062;45.120;37.660;2022-12-18T13:22:43;8.92;79.53
64652;HTU21D;51062;45.120;37.660;2022-12-18T13:38:21;8.77;79.50
64652;HTU21D;51062;45.120;37.660;2022-12-18T13:43:22;8.68;79.50
64652;HTU21D;51062;45.120;37.660;2022-12-18T13:48:34;8.58;79.57
64652;HTU21D;51062;45.120;37.660;2022-12-18T13:51:04;8.56;79.59
64652;HTU21D;51062;45.120;37.660;2022-12-18T13:53:33;8.55;79.66
64652;HTU21D;51062;45.120;37.660;2022-12-18T13:55:59;8.55;79.67
64652;HTU21D;51062;45.120;37.660;2022-12-18T13:58:25;8.57;79.65
64652;HTU21D;51062;45.120;37.660;2022-12-18T14:00:51;8.56;79.55
64652;HTU21D;51062;45.120;37.660;2022-12-18T14:03:18;8.49;79.47
64652;HTU21D;51062;45.120;37.660;2022-12-18T14:05:44;8.43;79.56
64652;HTU21D;51062;45.120;37.660;2022-12-18T14:08:14;0.00;79.60
64652;HTU21D;51062;45.120;37.660;2022-12-18T14:10:45;8.30;79.66
64652;HTU21D;51062;45.120;37.660;2022-12-18T14:13:23;8.27;79.66
64652;HTU21D;51062;45.120;37.660;2022-12-18T14:15:50;8.24;79.66
64652;HTU21D;51062;45.120;37.660;2022-12-18T14:20:57;8.14;79.67
64652;HTU21D;51062;45.120;37.660;2022-12-18T14:23:26;8.09;79.69
64652;HTU21D;51062;45.120;37.660;2022-12-18T14:25:54;8.06;79.75
64652;HTU21D;51062;45.120;37.660;2022-12-18T14:28:20;8.07;79.78
64652;HTU21D;51062;45.120;37.660;2022-12-18T14:30:47;8.05;79.72
64652;HTU21D;51062;45.120;37.660;2022-12-18T14:33:20;8.00;79.69
64652;HTU21D;51062;45.120;37.660;2022-12-18T14:35:53;7.94;79.73
64652;HTU21D;51062;45.120;37.660;2022-12-18T14:41:10;7.88;79.69
64652;HTU21D;51062;45.120;37.660;2022-12-18T14:43:36;7.79;79.73
64652;HTU21D;51062;45.120;37.660;2022-12-18T14:46:19;7.75;79.75
64652;HTU21D;51062;45.120;37.660;2022-12-18T14:48:50;7.72;79.88
64652;HTU21D;51062;45.120;37.660;2022-12-18T14:51:20;7.72;79.84
64652;HTU21D;51062;45.120;37.660;2022-12-18T14:53:53;7.73;79.81
64652;HTU21D;51062;45.120;37.660;2022-12-18T14:56:21;7.73;79.79
64652;HTU21D;51062;45.120;37.660;2022-12-18T14:59:12;7.73;79.74
64652;HTU21D;51062;45.120;37.660;2022-12-18T15:01:37;7.70;79.69
64652;HTU21D;51062;45.120;37.660;2022-12-18T15:04:04;7.67;79.72
64652;HTU21D;51062;45.120;37.660;2022-12-18T15:08:56;7.58;79.69
64652;HTU21D;51062;45.120;37.660;2022-12-18T15:13:51;7.50;79.82
64652;HTU21D;51062;45.120;37.660;2022-12-18T15:16:17;7.50;79.80
64652;HTU21D;51062;45.120;37.660;2022-12-18T15:18:43;7.48;79.80
64652;HTU21D;51062;45.120;37.660;2022-12-18T15:21:17;7.49;79.82
64652;HTU21D;51062;45.120;37.660;2022-12-18T15:26:10;7.44;79.70
64652;HTU21D;51062;45.120;37.660;2022-12-18T15:31:04;7.38;79.77
64652;HTU21D;51062;45.120;37.660;2022-12-18T15:33:34;7.38;79.77
64652;HTU21D;51062;45.120;37.660;2022-12-18T15:36:01;7.34;79.72
64652;HTU21D;51062;45.120;37.660;2022-12-18T15:38:27;7.34;79.74
64652;HTU21D;51062;45.120;37.660;2022-12-18T15:40:53;7.34;79.72
64652;HTU21D;51062;45.120;37.660;2022-12-18T15:43:22;7.37;79.72
64652;HTU21D;51062;45.120;37.660;2022-12-18T15:48:26;7.42;79.66
64652;HTU21D;51062;45.120;37.660;2022-12-18T15:50:54;7.45;79.57
64652;HTU21D;51062;45.120;37.660;2022-12-18T15:53:22;7.44;79.51
64652;HTU21D;51062;45.120;37.660;2022-12-18T15:55:49;7.46;79.52
64652;HTU21D;51062;45.120;37.660;2022-12-18T15:58:33;0.00;79.50
64652;HTU21D;51062;45.120;37.660;2022-12-18T16:00:59;7.49;79.44
64652;HTU21D;51062;45.120;37.660;2022-12-18T16:03:26;7.50;79.45
64652;HTU21D;51062;45.120;37.660;2022-12-18T16:05:52;7.52;79.42
64652;HTU21D;51062;45.120;37.660;2022-12-18T16:08:18;7.53;79.42
64652;HTU21D;51062;45.120;37.660;2022-12-18T16:10:44;7.52;79.37
64652;HTU21D;51062;45.120;37.660;2022-12-18T16:13:10;7.46;79.32
64652;HTU21D;51062;45.120;37.660;2022-12-18T16:15:36;7.42;79.37
64652;HTU21D;51062;45.120;37.660;2022-12-18T16:18:02;7.38;79.37
64652;HTU21D;51062;45.120;37.660;2022-12-18T16:20:28;7.32;79.43
64652;HTU21D;51062;45.120;37.660;2022-12-18T16:22:54;7.30;79.43
64652;HTU21D;51062;45.120;37.660;2022-12-18T16:25:20;7.28;79.40
64652;HTU21D;51062;45.120;37.660;2022-12-18T16:27:48;7.23;79.46
64652;HTU21D;51062;45.120;37.660;2022-12-18T16:30:15;7.23;79.48
64652;HTU21D;51062;45.120;37.660;2022-12-18T16:32:41;7.19;79.46
64652;HTU21D;51062;45.120;37.660;2022-12-18T16:35:09;7.16;79.41
64652;HTU21D;51062;45.120;37.660;2022-12-18T16:37:35;7.15;79.43
64652;HTU21D;51062;45.120;37.660;2022-12-18T16:40:01;7.13;79.43
64652;HTU21D;51062;45.120;37.660;2022-12-18T16:42:27;7.12;79.45
64652;HTU21D;51062;45.120;37.660;2022-12-18T16:44:53;7.11;79.41
64652;HTU21D;51062;45.120;37.660;2022-12-18T16:47:20;7.11;79.43
64652;HTU21D;51062;45.120;37.660;2022-12-18T16:49:47;7.10;79.41
64652;HTU21D;51062;45.120;37.660;2022-12-18T16:52:17;7.07;79.41
64652;HTU21D;51062;45.120;37.660;2022-12-18T16:54:43;7.07;79.43
64652;HTU21D;51062;45.120;37.660;2022-12-18T16:57:10;7.04;79.36